Time;durP1;ratioP1;P1;durP2;ratioP2;P2;SDS_P1;SDS_P2;PMS_P1;PMS_P2;Temp;Humidity;BMP_temperature;BMP_pressure;BME280_temperature;BME280_humidity;BME280_pressure;Samples;Min_cycle;Max_cycle;Signal;HPM_P1;HPM_P2
2023/03/14 00:01:30;;;;;;;11.15;3.85;;;;;;;9.51;72.72;98918.81;7393531;19;20005;-59
2023/03/14 00:03:55;;;;;;;14.77;3.40;;;;;;;9.51;72.61;98918.81;7390938;19;20356;-60
2023/03/14 00:06:21;;;;;;;11.13;3.22;;;;;;;9.51;72.88;98912.69;7392084;19;20473;-60
2023/03/14 00:08:47;;;;;;;10.13;2.88;;;;;;;9.50;72.89;98914.53;7392043;19;20002;-59
2023/03/14 00:11:16;;;;;;;12.32;3.22;;;;;;;9.49;72.87;98902.28;7394420;19;20423;-59
2023/03/14 00:13:41;;;;;;;10.70;3.15;;;;;;;9.47;72.79;98901.59;7394243;19;19999;-59
2023/03/14 00:16:12;;;;;;;10.00;3.50;;;;;;;9.49;72.79;98885.53;7393786;19;20511;-58
2023/03/14 00:18:38;;;;;;;10.80;3.13;;;;;;;9.50;72.69;98882.72;7393636;19;20002;-59
2023/03/14 00:21:05;;;;;;;12.27;3.58;;;;;;;9.46;72.77;98884.88;7391012;19;19995;-60
2023/03/14 00:23:33;;;;;;;9.70;3.20;;;;;;;9.46;72.87;98884.88;7394077;19;20008;-58
2023/03/14 00:26:00;;;;;;;11.30;2.75;;;;;;;9.40;72.78;98879.38;7390435;19;20026;-58
2023/03/14 00:28:26;;;;;;;9.70;3.00;;;;;;;9.37;73.06;98880.56;7393773;19;20036;-58
2023/03/14 00:30:51;;;;;;;12.02;3.13;;;;;;;9.34;73.32;98885.38;7391675;19;20459;-58
2023/03/14 00:33:16;;;;;;;10.57;3.10;;;;;;;9.39;72.80;98883.88;7390365;19;20542;-58
2023/03/14 00:35:42;;;;;;;13.02;3.20;;;;;;;9.42;73.04;98882.72;7390175;19;20147;-60
2023/03/14 00:38:07;;;;;;;12.73;3.33;;;;;;;9.42;72.81;98878.25;7392173;19;20003;-58
2023/03/14 00:40:33;;;;;;;10.70;2.92;;;;;;;9.45;72.74;98895.66;7391270;19;20455;-58
2023/03/14 00:42:58;;;;;;;8.68;3.00;;;;;;;9.48;72.62;98892.63;7392201;19;20091;-60
2023/03/14 00:45:24;;;;;;;15.93;3.40;;;;;;;9.46;72.85;98897.28;7390011;19;20002;-59
2023/03/14 00:47:49;;;;;;;8.63;2.38;;;;;;;9.45;72.91;98907.06;7391808;19;20483;-59
2023/03/14 00:50:15;;;;;;;12.57;3.10;;;;;;;9.47;73.17;98917.50;7392195;19;20058;-58
2023/03/14 00:52:41;;;;;;;10.43;3.17;;;;;;;9.44;73.17;98912.53;7391577;19;20002;-59
2023/03/14 00:55:06;;;;;;;9.38;2.90;;;;;;;9.38;73.38;98884.88;7390021;19;20003;-59
2023/03/14 00:57:32;;;;;;;10.32;3.58;;;;;;;9.31;73.45;98875.91;7387289;19;19999;-59
2023/03/14 00:59:57;;;;;;;12.73;3.33;;;;;;;9.30;73.66;98868.97;7389300;19;20328;-58
2023/03/14 01:02:23;;;;;;;9.75;3.58;;;;;;;9.26;74.10;98880.88;7389438;19;19999;-59
2023/03/14 01:04:49;;;;;;;13.88;3.88;;;;;;;9.26;74.12;98882.72;7390761;19;20431;-59
2023/03/14 01:07:15;;;;;;;11.20;3.15;;;;;;;9.21;74.39;98869.94;7391240;19;20016;-58
2023/03/14 01:09:40;;;;;;;9.85;3.67;;;;;;;9.21;74.45;98849.56;7389949;19;20010;-59
2023/03/14 01:12:06;;;;;;;9.57;3.17;;;;;;;9.18;74.75;98852.56;7391345;19;20412;-58
2023/03/14 01:14:31;;;;;;;11.02;3.80;;;;;;;9.16;75.20;98835.16;7389653;19;20014;-58
2023/03/14 01:17:00;;;;;;;10.88;3.40;;;;;;;9.17;75.16;98828.84;7391014;19;20027;-58
2023/03/14 01:19:27;;;;;;;14.13;3.83;;;;;;;9.23;74.99;98833.50;7390493;19;20034;-59
2023/03/14 01:21:53;;;;;;;10.65;3.83;;;;;;;9.28;75.03;98814.47;7390852;19;19999;-60
2023/03/14 01:24:20;;;;;;;9.10;3.75;;;;;;;9.26;75.56;98797.91;7389821;19;20027;-59
2023/03/14 01:26:46;;;;;;;12.32;4.43;;;;;;;9.30;75.50;98789.47;7387508;19;20014;-58
2023/03/14 01:29:11;;;;;;;10.75;3.83;;;;;;;9.37;75.09;98785.16;7388620;19;19999;-59
2023/03/14 01:31:37;;;;;;;11.90;4.18;;;;;;;9.34;75.78;98800.56;7387495;19;20013;-59
2023/03/14 01:34:03;;;;;;;10.80;4.50;;;;;;;9.31;75.82;98812.31;7390284;19;19999;-58
2023/03/14 01:36:28;;;;;;;12.18;4.82;;;;;;;9.34;75.77;98801.38;7387129;19;20345;-60
2023/03/14 01:38:54;;;;;;;10.77;4.07;;;;;;;9.36;75.92;98798.56;7385926;19;20325;-59
2023/03/14 01:41:23;;;;;;;12.57;4.63;;;;;;;9.39;75.90;98795.59;7389073;19;19999;-59
2023/03/14 01:43:49;;;;;;;11.00;4.53;;;;;;;9.38;76.09;98789.47;7394639;19;20010;-60
2023/03/14 01:46:31;;;;;;;13.95;4.45;;;;;;;9.38;76.54;98784.16;7393514;19;20434;-58
2023/03/14 01:49:19;;;;;;;10.23;4.05;;;;;;;9.40;76.38;98789.28;7398386;19;20022;-59
2023/03/14 01:51:50;;;;;;;10.93;4.20;;;;;;;9.36;76.73;98780.00;7394924;19;20003;-59
2023/03/14 01:54:39;;;;;;;12.43;4.47;;;;;;;9.39;77.04;98759.31;7395314;19;20082;-59
2023/03/14 01:57:13;;;;;;;13.43;4.95;;;;;;;9.39;76.64;98754.00;7397264;19;20010;-59
2023/03/14 01:59:42;;;;;;;14.48;4.70;;;;;;;9.39;76.39;98748.69;7397442;19;20003;-59
2023/03/14 02:02:11;;;;;;;14.55;4.63;;;;;;;9.34;76.63;98747.56;7397328;19;19995;-59
2023/03/14 02:04:39;;;;;;;10.95;4.65;;;;;;;9.35;76.44;98751.84;7395502;19;20003;-59
2023/03/14 02:07:25;;;;;;;12.15;4.63;;;;;;;9.31;76.93;98761.97;7397906;19;19999;-59
2023/03/14 02:09:52;;;;;;;11.88;4.22;;;;;;;9.28;76.43;98759.66;7396075;19;19999;-57
2023/03/14 02:12:20;;;;;;;9.23;4.50;;;;;;;9.28;76.91;98769.41;7396687;19;20007;-58
2023/03/14 02:14:47;;;;;;;10.48;4.30;;;;;;;9.27;76.88;98770.41;7396187;19;20414;-58
2023/03/14 02:17:16;;;;;;;12.75;5.00;;;;;;;9.29;76.65;98779.00;7396399;19;20003;-58
2023/03/14 02:19:53;;;;;;;11.45;4.45;;;;;;;9.29;77.06;98777.19;7395248;19;20062;-58
2023/03/14 02:22:19;;;;;;;11.93;4.70;;;;;;;9.32;76.68;98781.34;7394092;19;20490;-59
2023/03/14 02:25:02;;;;;;;12.48;4.45;;;;;;;9.35;76.49;98787.13;7395509;19;19994;-58
2023/03/14 02:27:28;;;;;;;12.38;4.78;;;;;;;9.37;76.54;98789.59;7393396;19;20015;-58
2023/03/14 02:30:00;;;;;;;13.40;4.68;;;;;;;9.39;76.17;98788.47;7396472;19;20019;-58
2023/03/14 02:32:29;;;;;;;11.85;4.70;;;;;;;9.41;76.57;98791.78;7394460;19;20014;-58
2023/03/14 02:34:58;;;;;;;13.27;4.47;;;;;;;9.39;76.75;98793.75;7395516;19;20014;-59
2023/03/14 02:37:32;;;;;;;12.68;4.38;;;;;;;9.38;76.61;98794.75;7396417;19;20062;-59
2023/03/14 02:39:58;;;;;;;10.07;4.30;;;;;;;9.41;76.42;98785.66;7394792;19;20372;-59
2023/03/14 02:42:23;;;;;;;12.38;4.10;;;;;;;9.42;76.26;98790.78;7396410;19;19997;-59
2023/03/14 02:45:09;;;;;;;11.38;5.22;;;;;;;9.45;76.45;98782.50;7395011;19;20006;-59
2023/03/14 02:47:41;;;;;;;15.40;4.63;;;;;;;9.43;76.36;98773.88;7389573;19;20019;-62
2023/03/14 02:50:12;;;;;;;11.32;3.78;;;;;;;9.47;75.96;98772.53;7395497;19;20014;-61
2023/03/14 02:52:38;;;;;;;11.13;3.95;;;;;;;9.48;76.06;98778.66;7396391;19;20010;-60
2023/03/14 02:55:04;;;;;;;14.32;4.13;;;;;;;9.53;75.75;98778.19;7393071;19;19998;-61
2023/03/14 02:57:30;;;;;;;11.57;4.10;;;;;;;9.53;75.97;98772.88;7395052;19;19999;-63
2023/03/14 02:59:59;;;;;;;11.23;3.90;;;;;;;9.55;75.49;98773.53;7394324;19;20016;-63
2023/03/14 03:02:25;;;;;;;14.63;4.28;;;;;;;9.60;75.40;98768.53;7396457;19;20007;-62
2023/03/14 03:04:50;;;;;;;11.98;3.67;;;;;;;9.54;75.30;98763.94;7394875;19;20459;-63
2023/03/14 03:07:16;;;;;;;8.93;3.30;;;;;;;9.56;75.42;98772.53;7394431;19;20019;-63
2023/03/14 03:09:41;;;;;;;10.55;3.20;;;;;;;9.56;75.13;98761.91;7393442;19;20002;-62
2023/03/14 03:12:07;;;;;;;11.50;3.47;;;;;;;9.60;74.83;98755.28;7394601;19;19990;-63
2023/03/14 03:14:32;;;;;;;12.98;3.58;;;;;;;9.59;74.73;98762.41;7395527;19;19999;-65
2023/03/14 03:16:57;;;;;;;12.73;3.58;;;;;;;9.57;74.95;98743.22;7395777;19;19998;-62
2023/03/14 03:19:23;;;;;;;9.32;3.70;;;;;;;9.57;74.86;98745.03;7394585;19;20469;-61
2023/03/14 03:21:48;;;;;;;12.63;3.13;;;;;;;9.60;74.62;98744.69;7397091;19;19994;-61
2023/03/14 03:24:14;;;;;;;13.38;3.50;;;;;;;9.59;74.63;98737.72;7396174;19;20070;-61
2023/03/14 03:26:39;;;;;;;10.82;3.25;;;;;;;9.59;74.36;98737.72;7395328;19;20007;-60
2023/03/14 03:29:05;;;;;;;10.15;3.10;;;;;;;9.59;74.24;98741.22;7396368;19;20305;-61
2023/03/14 03:31:30;;;;;;;11.13;3.30;;;;;;;9.65;73.93;98745.84;7394192;19;20459;-61
2023/03/14 03:33:57;;;;;;;8.90;2.72;;;;;;;9.66;73.89;98746.66;7395646;19;20003;-64
2023/03/14 03:36:26;;;;;;;8.65;2.70;;;;;;;9.66;73.91;98744.00;7395612;19;20003;-63
2023/03/14 03:38:51;;;;;;;11.93;2.97;;;;;;;9.64;73.99;98744.19;7396061;19;20003;-64
2023/03/14 03:41:17;;;;;;;10.10;3.28;;;;;;;9.65;73.54;98745.84;7393259;19;20022;-62
2023/03/14 03:43:49;;;;;;;9.93;2.92;;;;;;;9.66;73.42;98747.50;7396143;19;20010;-62
2023/03/14 03:46:14;;;;;;;11.32;3.47;;;;;;;9.66;73.70;98738.72;7394837;19;20047;-61
2023/03/14 03:48:40;;;;;;;7.00;2.40;;;;;;;9.64;73.42;98744.19;7392857;19;20011;-62
2023/03/14 03:51:06;;;;;;;10.25;2.40;;;;;;;9.66;73.52;98773.19;7395010;19;20009;-62
2023/03/14 03:53:32;;;;;;;6.32;1.20;;;;;;;9.54;72.03;98759.44;7396587;19;20027;-62
2023/03/14 03:55:57;;;;;;;2.53;1.00;;;;;;;9.31;73.04;98758.50;7393820;19;20007;-62
2023/03/14 03:58:23;;;;;;;4.75;1.10;;;;;;;9.11;73.91;98742.94;7393015;19;20070;-62
2023/03/14 04:00:48;;;;;;;3.65;0.80;;;;;;;8.96;74.50;98737.47;7395043;19;20006;-65
2023/03/14 04:03:14;;;;;;;3.22;0.90;;;;;;;8.95;74.61;98750.88;7393342;19;20002;-64
2023/03/14 04:05:39;;;;;;;2.03;0.80;;;;;;;8.89;75.15;98752.38;7389908;19;20006;-64
2023/03/14 04:08:05;;;;;;;4.70;1.00;;;;;;;8.88;75.98;98749.91;7389090;19;20033;-65
2023/03/14 04:10:34;;;;;;;6.05;1.30;;;;;;;8.82;76.35;98740.78;7392201;19;20010;-65
2023/03/14 04:12:59;;;;;;;3.08;1.25;;;;;;;8.74;76.62;98736.31;7392934;19;20006;-63
2023/03/14 04:15:25;;;;;;;7.80;1.60;;;;;;;8.84;76.70;98740.63;7392484;19;20138;-63
2023/03/14 04:17:50;;;;;;;5.07;1.90;;;;;;;8.91;76.58;98733.66;7391377;19;20006;-64
2023/03/14 04:20:16;;;;;;;8.85;2.47;;;;;;;8.96;76.59;98737.47;7392265;19;20445;-64
2023/03/14 04:22:41;;;;;;;8.25;2.10;;;;;;;9.00;77.11;98735.31;7392666;19;19999;-64
2023/03/14 04:25:07;;;;;;;7.43;2.67;;;;;;;9.00;77.03;98737.16;7392127;19;19997;-64
2023/03/14 04:27:33;;;;;;;10.23;2.55;;;;;;;9.00;77.40;98727.38;7391352;19;19999;-64
2023/03/14 04:29:58;;;;;;;11.18;2.70;;;;;;;9.03;77.12;98727.06;7392224;19;20336;-63
2023/03/14 04:32:23;;;;;;;8.50;2.63;;;;;;;9.05;77.22;98718.94;7392103;19;20026;-64
2023/03/14 04:34:49;;;;;;;10.00;3.08;;;;;;;9.03;76.92;98723.56;7392227;19;20012;-64
2023/03/14 04:37:14;;;;;;;9.80;2.90;;;;;;;9.10;76.76;98727.19;7391888;19;20408;-64
2023/03/14 04:39:40;;;;;;;11.07;2.70;;;;;;;9.12;76.32;98714.63;7390046;19;20006;-64
2023/03/14 04:42:06;;;;;;;8.18;2.40;;;;;;;9.13;75.89;98716.28;7391828;19;19994;-63
2023/03/14 04:44:31;;;;;;;7.93;2.22;;;;;;;9.14;75.86;98709.97;7391129;19;20006;-63
2023/03/14 04:46:57;;;;;;;6.97;2.00;;;;;;;9.15;75.79;98709.00;7389409;19;20006;-63
2023/03/14 04:49:22;;;;;;;10.85;2.83;;;;;;;9.17;75.58;98720.25;7394263;19;20026;-63
2023/03/14 04:51:50;;;;;;;8.90;2.40;;;;;;;9.11;75.64;98720.94;7393030;19;20511;-63
2023/03/14 04:54:16;;;;;;;11.85;3.17;;;;;;;9.17;75.84;98723.72;7392417;19;20014;-62
2023/03/14 04:56:42;;;;;;;10.45;2.63;;;;;;;9.15;76.07;98722.25;7389208;19;20002;-63
2023/03/14 04:59:08;;;;;;;10.43;2.63;;;;;;;9.08;76.36;98718.59;7392180;19;20019;-63
2023/03/14 05:01:33;;;;;;;9.02;2.28;;;;;;;9.07;76.48;98719.59;7391292;19;19998;-64
2023/03/14 05:03:59;;;;;;;7.28;2.58;;;;;;;9.07;76.55;98727.56;7389348;19;20480;-64
2023/03/14 05:06:25;;;;;;;7.05;2.20;;;;;;;9.02;76.68;98729.84;7390989;19;19999;-64
2023/03/14 05:08:51;;;;;;;3.47;1.75;;;;;;;8.95;76.05;98725.22;7391641;19;20393;-64
2023/03/14 05:11:16;;;;;;;6.60;2.00;;;;;;;8.97;75.73;98730.34;7390094;19;20007;-63
2023/03/14 05:13:41;;;;;;;5.88;1.90;;;;;;;8.94;75.38;98717.44;7391545;19;20002;-63
2023/03/14 05:16:09;;;;;;;6.93;2.10;;;;;;;8.88;75.46;98729.53;7390031;19;20500;-62
2023/03/14 05:18:35;;;;;;;7.60;1.90;;;;;;;8.82;75.18;98719.59;7388303;19;20003;-64
2023/03/14 05:21:07;;;;;;;10.93;2.10;;;;;;;8.85;74.71;98724.56;7389639;19;20018;-65
2023/03/14 05:23:32;;;;;;;11.02;2.28;;;;;;;8.83;74.83;98726.53;7392048;19;20017;-63
2023/03/14 05:25:57;;;;;;;6.93;1.70;;;;;;;8.81;74.92;98728.53;7390444;19;19991;-64
2023/03/14 05:28:23;;;;;;;7.95;1.92;;;;;;;8.77;74.96;98721.91;7390073;19;20054;-64
2023/03/14 05:30:48;;;;;;;7.63;1.77;;;;;;;8.73;74.69;98712.66;7389507;19;20006;-63
2023/03/14 05:33:14;;;;;;;9.57;2.08;;;;;;;8.73;74.56;98712.66;7390299;19;19995;-63
2023/03/14 05:35:39;;;;;;;8.73;1.90;;;;;;;8.65;74.56;98708.19;7389648;19;20456;-62
2023/03/14 05:38:05;;;;;;;8.48;1.88;;;;;;;8.68;74.62;98721.09;7389153;19;20039;-64
2023/03/14 05:40:30;;;;;;;7.43;1.70;;;;;;;8.60;74.26;98701.69;7389129;19;19998;-62
2023/03/14 05:42:56;;;;;;;8.23;1.70;;;;;;;8.54;74.33;98697.91;7390113;19;20478;-62
2023/03/14 05:45:21;;;;;;;8.02;2.00;;;;;;;8.58;74.17;98709.00;7389954;19;19998;-62
2023/03/14 05:47:47;;;;;;;7.78;2.00;;;;;;;8.59;74.04;98706.16;7389035;19;20066;-64
2023/03/14 05:50:12;;;;;;;8.13;1.65;;;;;;;8.64;73.77;98706.50;7388522;19;20006;-63
2023/03/14 05:52:38;;;;;;;8.95;1.52;;;;;;;8.69;73.55;98698.91;7390189;19;19995;-64
2023/03/14 05:55:04;;;;;;;7.72;1.90;;;;;;;8.70;73.60;98700.56;7388960;19;20186;-63
2023/03/14 05:57:29;;;;;;;7.93;1.80;;;;;;;8.77;73.54;98699.91;7389182;19;20002;-64
2023/03/14 05:59:55;;;;;;;7.68;1.73;;;;;;;8.78;73.34;98702.38;7389510;19;19999;-63
2023/03/14 06:02:20;;;;;;;6.88;1.52;;;;;;;8.79;73.16;98711.16;7387879;19;19997;-64
2023/03/14 06:04:46;;;;;;;5.47;1.40;;;;;;;8.81;72.98;98703.88;7389123;19;20016;-64
2023/03/14 06:07:11;;;;;;;4.90;1.50;;;;;;;8.84;73.05;98704.38;7387506;19;20514;-65
2023/03/14 06:09:37;;;;;;;6.78;1.42;;;;;;;8.83;72.71;98709.81;7390044;19;20007;-64
2023/03/14 06:12:03;;;;;;;6.68;1.40;;;;;;;8.89;71.87;98703.88;7390247;19;20473;-64
2023/03/14 06:14:28;;;;;;;6.28;1.55;;;;;;;8.89;72.29;98712.66;7389931;19;20018;-63
2023/03/14 06:16:54;;;;;;;7.00;1.30;;;;;;;8.90;72.18;98706.34;7388929;19;19998;-64
2023/03/14 06:19:19;;;;;;;6.50;1.48;;;;;;;8.95;71.77;98704.06;7389238;19;19999;-63
2023/03/14 06:21:45;;;;;;;6.55;1.60;;;;;;;8.95;71.67;98701.41;7389966;19;20001;-64
2023/03/14 06:24:11;;;;;;;5.60;1.40;;;;;;;9.01;71.31;98704.38;7387655;19;20019;-64
2023/03/14 06:26:36;;;;;;;9.23;1.63;;;;;;;8.98;71.22;98702.88;7388510;19;20006;-63
2023/03/14 06:29:03;;;;;;;7.20;1.83;;;;;;;8.94;71.58;98707.66;7388024;19;20002;-64
2023/03/14 06:31:30;;;;;;;6.38;1.30;;;;;;;9.04;71.32;98712.00;7394670;19;19998;-64
2023/03/14 06:33:56;;;;;;;7.43;1.48;;;;;;;9.06;71.03;98710.81;7396719;19;20002;-64
2023/03/14 06:36:21;;;;;;;7.65;1.40;;;;;;;9.04;71.33;98714.63;7393956;19;20366;-64
2023/03/14 06:38:47;;;;;;;5.35;1.52;;;;;;;8.98;71.36;98713.47;7393405;19;19994;-64
2023/03/14 06:41:12;;;;;;;5.40;1.67;;;;;;;8.97;71.66;98714.47;7392185;19;20022;-64
2023/03/14 06:43:38;;;;;;;7.18;1.67;;;;;;;8.94;71.87;98699.72;7396192;19;20002;-63
2023/03/14 06:46:04;;;;;;;4.68;1.38;;;;;;;8.94;71.86;98715.63;7395900;19;20002;-64
2023/03/14 06:48:29;;;;;;;5.85;1.33;;;;;;;8.84;72.18;98704.38;7391494;19;20002;-63
2023/03/14 06:50:55;;;;;;;9.10;1.60;;;;;;;8.80;72.36;98716.28;7393984;19;19999;-64
2023/03/14 06:53:20;;;;;;;6.53;1.55;;;;;;;8.81;72.84;98714.47;7395225;19;20003;-65
2023/03/14 06:55:46;;;;;;;5.00;1.50;;;;;;;8.80;72.66;98715.44;7394677;19;20019;-63
2023/03/14 06:58:11;;;;;;;8.50;1.65;;;;;;;8.83;72.82;98715.13;7391873;19;20087;-63
2023/03/14 07:00:37;;;;;;;6.55;1.48;;;;;;;8.88;72.78;98724.25;7393648;19;20443;-63
2023/03/14 07:03:02;;;;;;;7.45;1.67;;;;;;;8.89;73.06;98728.53;7394854;19;20463;-62
2023/03/14 07:05:28;;;;;;;4.32;1.40;;;;;;;8.83;73.13;98723.88;7394901;19;20017;-67
2023/03/14 07:07:53;;;;;;;9.52;1.95;;;;;;;8.83;73.58;98720.41;7391145;19;19994;-67
2023/03/14 07:10:19;;;;;;;8.68;1.80;;;;;;;8.94;73.27;98722.75;7395429;19;20006;-68
2023/03/14 07:12:45;;;;;;;7.20;1.90;;;;;;;8.95;73.24;98730.53;7395182;19;20006;-67
2023/03/14 07:15:10;;;;;;;9.05;2.15;;;;;;;8.98;73.23;98734.66;7394821;19;20022;-67
2023/03/14 07:17:39;;;;;;;8.00;2.28;;;;;;;9.07;73.18;98725.72;7393628;19;20009;-65
2023/03/14 07:20:05;;;;;;;8.40;2.10;;;;;;;9.09;73.16;98723.72;7393728;19;20002;-66
2023/03/14 07:22:30;;;;;;;7.45;1.95;;;;;;;9.30;72.46;98722.41;7394851;19;19999;-66
2023/03/14 07:24:56;;;;;;;8.63;2.28;;;;;;;9.25;72.94;98728.19;7394100;19;20494;-66
2023/03/14 07:27:21;;;;;;;10.38;2.03;;;;;;;9.25;73.00;98725.53;7393166;19;19999;-65
2023/03/14 07:29:47;;;;;;;9.52;2.20;;;;;;;9.36;72.54;98727.00;7394402;19;20003;-64
2023/03/14 07:32:14;;;;;;;10.50;2.38;;;;;;;9.38;72.25;98728.50;7394305;19;20058;-64
2023/03/14 07:34:43;;;;;;;10.18;2.35;;;;;;;9.47;72.15;98734.59;7393635;19;20034;-63
2023/03/14 07:37:08;;;;;;;9.98;2.05;;;;;;;9.50;72.25;98744.06;7392365;19;20010;-64
2023/03/14 07:39:34;;;;;;;9.93;2.10;;;;;;;9.56;71.98;98746.00;7394106;19;20353;-63
2023/03/14 07:41:59;;;;;;;12.10;2.30;;;;;;;9.53;71.85;98744.56;7393517;19;20223;-64
2023/03/14 07:44:25;;;;;;;11.05;2.63;;;;;;;9.56;71.99;98746.88;7393338;19;20002;-63
2023/03/14 07:46:50;;;;;;;10.95;2.60;;;;;;;9.49;72.33;98739.75;7393615;19;20003;-63
2023/03/14 07:49:16;;;;;;;11.80;2.03;;;;;;;9.57;71.84;98731.78;7392009;19;20470;-63
2023/03/14 07:51:43;;;;;;;7.68;2.00;;;;;;;9.53;72.25;98744.56;7394187;19;19995;-63
2023/03/14 07:54:12;;;;;;;13.13;2.35;;;;;;;9.57;71.81;98751.16;7394344;19;20003;-63
2023/03/14 07:56:37;;;;;;;8.48;2.38;;;;;;;9.55;71.95;98747.03;7392715;19;20321;-64
2023/03/14 07:59:03;;;;;;;11.65;2.75;;;;;;;9.54;71.86;98740.06;7394129;19;19999;-64
2023/03/14 08:01:29;;;;;;;12.73;2.53;;;;;;;9.54;71.75;98750.69;7390615;19;20298;-63
2023/03/14 08:03:54;;;;;;;9.73;2.45;;;;;;;9.52;71.77;98757.94;7391495;19;20567;-64
2023/03/14 08:06:20;;;;;;;9.95;1.83;;;;;;;9.49;71.96;98745.06;7392758;19;20006;-63
2023/03/14 08:08:45;;;;;;;9.27;2.08;;;;;;;9.56;71.70;98744.22;7391779;19;20488;-64
2023/03/14 08:11:11;;;;;;;9.48;2.03;;;;;;;9.51;71.60;98743.88;7393204;19;20498;-63
2023/03/14 08:13:37;;;;;;;6.38;1.95;;;;;;;9.48;71.93;98733.59;7391588;19;20478;-64
2023/03/14 08:16:04;;;;;;;10.80;2.08;;;;;;;9.50;71.79;98746.72;7392654;19;19998;-63
2023/03/14 08:18:30;;;;;;;9.63;2.00;;;;;;;9.46;71.58;98746.22;7391073;19;20025;-64
2023/03/14 08:20:55;;;;;;;8.25;2.08;;;;;;;9.45;71.61;98747.22;7389636;19;20578;-63
2023/03/14 08:23:21;;;;;;;10.50;2.00;;;;;;;9.34;72.03;98743.09;7393577;19;20024;-64
2023/03/14 08:25:50;;;;;;;7.05;1.83;;;;;;;9.33;72.01;98736.13;7392154;19;20003;-64
2023/03/14 08:28:15;;;;;;;10.07;2.20;;;;;;;9.42;71.67;98731.66;7389782;19;19995;-64
2023/03/14 08:30:41;;;;;;;9.93;2.17;;;;;;;9.41;71.55;98748.56;7392982;19;20408;-63
2023/03/14 08:33:06;;;;;;;6.75;1.73;;;;;;;9.41;71.38;98740.59;7392192;19;19991;-64
2023/03/14 08:35:32;;;;;;;7.97;1.85;;;;;;;9.47;70.98;98747.88;7391834;19;20466;-64
2023/03/14 08:37:57;;;;;;;10.15;1.80;;;;;;;9.46;71.31;98743.56;7391115;19;20019;-65
2023/03/14 08:40:23;;;;;;;9.43;1.90;;;;;;;9.59;70.97;98746.50;7391400;19;20448;-65
2023/03/14 08:42:48;;;;;;;8.13;1.80;;;;;;;9.60;70.79;98757.94;7392571;19;20069;-65
2023/03/14 08:45:16;;;;;;;7.90;1.95;;;;;;;9.53;71.44;98757.81;7391258;19;20122;-62
2023/03/14 08:47:43;;;;;;;11.55;2.50;;;;;;;9.44;72.87;98762.25;7390637;19;20018;-62
2023/03/14 08:50:10;;;;;;;6.70;1.67;;;;;;;9.28;74.47;98772.91;7391495;19;20589;-62
2023/03/14 08:52:37;;;;;;;9.07;2.20;;;;;;;9.16;75.17;98766.28;7390302;19;20002;-62
2023/03/14 08:55:03;;;;;;;5.40;1.73;;;;;;;9.06;76.06;98770.91;7391715;19;19999;-63
2023/03/14 08:57:29;;;;;;;8.95;1.90;;;;;;;9.01;76.87;98775.88;7391220;19;19998;-64
2023/03/14 08:59:56;;;;;;;7.22;2.00;;;;;;;8.95;77.21;98782.66;7391022;19;20038;-66
2023/03/14 09:02:22;;;;;;;8.35;2.30;;;;;;;8.92;77.74;98790.94;7391710;19;20070;-65
2023/03/14 09:04:49;;;;;;;9.45;2.30;;;;;;;8.84;79.28;98809.47;7390971;19;20011;-65
2023/03/14 09:07:14;;;;;;;11.63;2.53;;;;;;;8.63;81.38;98861.03;7391834;19;20003;-66
2023/03/14 09:09:40;;;;;;;5.47;1.25;;;;;;;7.89;77.24;98880.97;7391987;19;20010;-65
2023/03/14 09:12:06;;;;;;;2.53;0.65;;;;;;;7.12;76.56;98898.31;7391315;19;20010;-64
2023/03/14 09:14:32;;;;;;;3.50;0.80;;;;;;;7.02;77.98;98895.72;7389834;19;20002;-65
2023/03/14 09:16:57;;;;;;;3.25;0.77;;;;;;;6.84;77.92;98905.41;7390248;19;20002;-65
2023/03/14 09:19:23;;;;;;;4.18;0.73;;;;;;;6.69;76.43;98922.72;7388478;19;20030;-65
2023/03/14 09:21:49;;;;;;;4.82;0.98;;;;;;;6.54;75.96;98931.13;7390380;19;19999;-65
2023/03/14 09:24:15;;;;;;;7.38;1.50;;;;;;;6.54;75.09;98949.59;7388486;19;20494;-65
2023/03/14 09:26:40;;;;;;;5.50;0.77;;;;;;;6.33;75.75;98959.50;7387880;19;20009;-65
2023/03/14 09:29:06;;;;;;;5.85;0.90;;;;;;;6.19;75.25;98979.22;7391339;19;19994;-65
2023/03/14 09:31:31;;;;;;;5.07;1.00;;;;;;;6.10;75.25;98987.16;7389377;19;20488;-65
2023/03/14 09:33:57;;;;;;;5.75;0.70;;;;;;;5.98;75.13;98991.75;7390280;19;20514;-64
2023/03/14 09:36:22;;;;;;;5.72;0.95;;;;;;;5.89;75.08;99000.47;7390294;19;20010;-64
2023/03/14 09:38:48;;;;;;;3.58;0.70;;;;;;;5.71;74.91;99019.63;7388275;19;20006;-64
2023/03/14 09:41:23;;;;;;;4.00;0.70;;;;;;;5.56;74.07;99021.00;7389038;19;20003;-64
2023/03/14 09:44:00;;;;;;;3.70;0.50;;;;;;;5.64;74.85;99026.41;7389985;19;20009;-64
2023/03/14 09:46:27;;;;;;;2.60;0.75;;;;;;;5.46;74.47;99049.13;7389791;19;20092;-64
2023/03/14 09:48:52;;;;;;;2.63;0.50;;;;;;;5.54;73.87;99039.56;7388507;19;20112;-65
2023/03/14 09:51:21;;;;;;;3.00;0.73;;;;;;;5.49;73.84;99068.13;7390071;19;20003;-64
2023/03/14 09:53:48;;;;;;;2.63;0.70;;;;;;;5.33;73.49;99094.13;7389528;19;20332;-65
2023/03/14 09:56:25;;;;;;;1.65;0.70;;;;;;;5.30;73.79;99097.03;7389613;19;20002;-65
2023/03/14 09:58:59;;;;;;;1.02;0.43;;;;;;;5.42;72.96;99119.66;7390527;19;20447;-65
2023/03/14 10:01:28;;;;;;;1.45;0.22;;;;;;;5.37;72.45;99127.13;7388280;19;20040;-65
2023/03/14 10:03:56;;;;;;;3.25;0.40;;;;;;;5.27;72.89;99142.06;7390376;19;20013;-65
2023/03/14 10:06:26;;;;;;;0.95;0.32;;;;;;;5.12;72.80;99162.63;7396276;19;19999;-65
2023/03/14 10:08:52;;;;;;;0.45;0.20;;;;;;;4.92;72.66;99164.31;7395724;19;20015;-65
2023/03/14 10:11:19;;;;;;;1.55;0.20;;;;;;;4.92;72.29;99180.09;7397160;19;20090;-65
2023/03/14 10:14:19;;;;;;;1.02;0.20;;;;;;;4.75;72.17;99193.81;7396798;19;19995;-65
2023/03/14 10:16:45;;;;;;;2.50;0.35;;;;;;;5.07;72.50;99202.50;7396008;19;20010;-65
2023/03/14 10:19:17;;;;;;;1.25;0.40;;;;;;;5.14;71.18;99204.63;7397320;19;19998;-65
2023/03/14 10:21:49;;;;;;;0.68;0.20;;;;;;;5.31;71.31;99228.53;7398003;19;19994;-65
2023/03/14 10:24:22;;;;;;;0.68;0.20;;;;;;;5.38;71.29;99228.88;7396977;19;20002;-65
2023/03/14 10:27:18;;;;;;;1.90;0.30;;;;;;;5.41;70.35;99254.94;7395941;19;20006;-65
2023/03/14 10:29:58;;;;;;;2.63;0.35;;;;;;;5.12;71.24;99253.91;7396575;19;20002;-65
2023/03/14 10:32:32;;;;;;;2.40;0.40;;;;;;;4.96;72.73;99254.38;7396564;19;20342;-65
2023/03/14 10:35:20;;;;;;;1.25;0.30;;;;;;;5.18;71.91;99274.47;7395769;19;20002;-64
2023/03/14 10:38:01;;;;;;;2.20;0.40;;;;;;;5.35;71.54;99288.84;7394971;19;20017;-64
2023/03/14 10:40:37;;;;;;;1.92;0.47;;;;;;;5.36;70.79;99288.72;7394876;19;20435;-64
2023/03/14 10:43:13;;;;;;;1.08;0.47;;;;;;;5.48;71.09;99298.22;7396912;19;20427;-65
2023/03/14 10:45:42;;;;;;;2.83;0.60;;;;;;;5.48;71.10;99307.94;7395434;19;20001;-63
2023/03/14 10:48:07;;;;;;;4.80;0.77;;;;;;;5.33;70.81;99324.06;7393724;19;20010;-63
2023/03/14 10:50:33;;;;;;;3.22;0.70;;;;;;;5.34;71.59;99335.41;7396011;19;20002;-63
2023/03/14 10:53:05;;;;;;;4.30;0.90;;;;;;;5.15;70.99;99328.19;7396163;19;20010;-63
2023/03/14 10:55:42;;;;;;;4.03;0.82;;;;;;;5.23;70.94;99343.38;7395735;19;19999;-63
2023/03/14 10:58:29;;;;;;;5.70;1.13;;;;;;;5.26;70.17;99335.22;7394579;19;20140;-64
2023/03/14 11:01:03;;;;;;;4.45;1.05;;;;;;;5.10;70.98;99346.19;7394606;19;20030;-63
2023/03/14 11:03:34;;;;;;;2.75;0.80;;;;;;;5.20;70.54;99338.34;7394135;19;20025;-63
2023/03/14 11:06:14;;;;;;;5.30;0.85;;;;;;;5.24;70.76;99337.13;7395023;19;20007;-64
2023/03/14 11:08:57;;;;;;;5.70;0.95;;;;;;;5.30;70.19;99344.53;7391517;19;20010;-62
2023/03/14 11:11:26;;;;;;;3.92;0.80;;;;;;;5.38;69.98;99347.38;7395534;19;20007;-64
2023/03/14 11:14:03;;;;;;;6.70;1.13;;;;;;;5.22;69.95;99357.50;7395871;19;20003;-63
2023/03/14 11:17:01;;;;;;;4.72;0.73;;;;;;;5.42;70.52;99385.66;7392978;19;20002;-64
2023/03/14 11:19:38;;;;;;;4.28;1.20;;;;;;;5.62;69.49;99388.41;7395278;19;20095;-63
2023/03/14 11:22:22;;;;;;;6.85;1.50;;;;;;;5.64;68.76;99395.25;7395462;19;19995;-63
2023/03/14 11:25:13;;;;;;;9.07;1.70;;;;;;;5.67;69.68;99402.03;7393774;19;20006;-63
2023/03/14 11:28:03;;;;;;;9.90;1.80;;;;;;;5.87;68.95;99408.28;7391654;19;20396;-64
2023/03/14 11:31:06;;;;;;;7.78;1.92;;;;;;;5.96;68.55;99418.88;7392941;19;19999;-64
2023/03/14 11:33:38;;;;;;;9.07;1.58;;;;;;;5.85;68.32;99412.84;7393172;19;20034;-64
2023/03/14 11:36:10;;;;;;;8.25;1.58;;;;;;;5.94;68.90;99428.72;7393571;19;20002;-63
2023/03/14 11:38:46;;;;;;;9.38;1.77;;;;;;;6.14;67.24;99436.75;7392159;19;20006;-63
2023/03/14 11:41:18;;;;;;;10.50;1.55;;;;;;;6.17;67.86;99437.34;7392094;19;20030;-63
2023/03/14 11:43:48;;;;;;;10.45;2.30;;;;;;;6.21;67.23;99443.19;7394152;19;20014;-64